Time;durP1;ratioP1;P1;durP2;ratioP2;P2;SDS_P1;SDS_P2;PMS_P1;PMS_P2;Temp;Humidity;BMP_temperature;BMP_pressure;BME280_temperature;BME280_humidity;BME280_pressure;Samples;Min_cycle;Max_cycle;Signal;HPM_P1;HPM_P2
2023/04/12 00:01:49;;;;;;;11.90;2.53;;;;;;;;;;5057166;28;20037;-61
2023/04/12 00:04:15;;;;;;;10.47;2.57;;;;;;;;;;5054994;28;20047;-61
2023/04/12 00:06:47;;;;;;;9.83;3.27;;;;;;;;;;5059448;28;20072;-61
2023/04/12 00:09:13;;;;;;;6.23;2.00;;;;;;;;;;5062657;28;20084;-61
2023/04/12 00:11:39;;;;;;;9.70;2.63;;;;;;;;;;5059835;28;20041;-61
2023/04/12 00:14:05;;;;;;;9.83;2.67;;;;;;;;;;5062635;28;20036;-60
2023/04/12 00:16:31;;;;;;;10.80;2.43;;;;;;;;;;5059934;28;20047;-61
2023/04/12 00:18:57;;;;;;;9.53;2.70;;;;;;;;;;5056823;28;20041;-61
2023/04/12 00:21:23;;;;;;;7.67;2.17;;;;;;;;;;5059249;28;20135;-61
2023/04/12 00:23:49;;;;;;;15.03;3.50;;;;;;;;;;5062143;28;20597;-60
2023/04/12 00:26:15;;;;;;;13.50;3.10;;;;;;;;;;5059577;28;20048;-60
2023/04/12 00:28:42;;;;;;;9.83;3.20;;;;;;;;;;5059091;28;20064;-61
2023/04/12 00:31:08;;;;;;;10.37;2.50;;;;;;;;;;5063123;28;20051;-61
2023/04/12 00:33:35;;;;;;;8.67;2.23;;;;;;;;;;5056928;28;20041;-60
2023/04/12 00:36:01;;;;;;;14.57;3.13;;;;;;;;;;5053820;28;20040;-61
2023/04/12 00:38:27;;;;;;;12.93;2.30;;;;;;;;;;5058808;28;20036;-61
2023/04/12 00:40:53;;;;;;;9.73;2.70;;;;;;;;;;5061435;28;20167;-60
2023/04/12 00:43:19;;;;;;;9.80;2.70;;;;;;;;;;5062312;28;20048;-61
2023/04/12 00:45:48;;;;;;;10.70;3.23;;;;;;;;;;5058795;28;20382;-61
2023/04/12 00:48:15;;;;;;;12.77;3.47;;;;;;;;;;5060876;28;20043;-60
2023/04/12 00:50:43;;;;;;;8.93;2.07;;;;;;;;;;5058668;28;20049;-61
2023/04/12 00:53:12;;;;;;;8.60;2.67;;;;;;;;;;5056901;28;20710;-61
2023/04/12 00:55:38;;;;;;;8.83;2.53;;;;;;;;;;5057598;28;20044;-61
2023/04/12 00:58:04;;;;;;;17.20;3.50;;;;;;;;;;5057010;28;20048;-61
2023/04/12 01:00:31;;;;;;;9.70;3.10;;;;;;;;;;5062518;28;20044;-61
2023/04/12 01:02:57;;;;;;;10.23;2.67;;;;;;;;;;5056084;28;20123;-60
2023/04/12 01:05:23;;;;;;;10.53;2.10;;;;;;;;;;5057693;28;20052;-61
2023/04/12 01:08:03;;;;;;;8.97;2.80;;;;;;;;;;5055252;28;20049;-61
2023/04/12 01:10:48;;;;;;;8.63;2.87;;;;;;;;;;5056866;28;20123;-60
2023/04/12 01:13:27;;;;;;;7.83;2.30;;;;;;;;;;5057610;28;20502;-61
2023/04/12 01:16:14;;;;;;;6.83;2.30;;;;;;;;;;5058117;28;20044;-60
2023/04/12 01:18:49;;;;;;;7.13;2.27;;;;;;;;;;5052656;28;20048;-60
2023/04/12 01:21:23;;;;;;;8.43;2.20;;;;;;;;;;5057246;28;20051;-60
2023/04/12 01:24:12;;;;;;;10.87;2.30;;;;;;;;;;5059324;28;20964;-61
2023/04/12 01:26:43;;;;;;;10.43;2.33;;;;;;;;;;5056342;28;20045;-60
2023/04/12 01:29:10;;;;;;;10.53;2.50;;;;;;;;;;5055220;28;20139;-60
2023/04/12 01:31:39;;;;;;;6.70;2.47;;;;;;;;;;5055786;28;20487;-61
2023/04/12 01:34:06;;;;;;;10.93;2.40;;;;;;;;;;5056159;28;20482;-60
2023/04/12 01:36:33;;;;;;;9.07;2.50;;;;;;;;;;5060445;28;20036;-61
2023/04/12 01:39:00;;;;;;;12.37;3.33;;;;;;;;;;5058982;28;20037;-61
2023/04/12 01:41:26;;;;;;;13.93;2.20;;;;;;;;;;5056622;28;20044;-61
2023/04/12 01:43:52;;;;;;;12.07;3.00;;;;;;;;;;5059072;28;20043;-61
2023/04/12 01:46:19;;;;;;;12.43;2.10;;;;;;;;;;5060410;28;20090;-61
2023/04/12 01:48:51;;;;;;;10.87;2.60;;;;;;;;;;5059903;28;20036;-61
2023/04/12 01:51:27;;;;;;;10.23;2.47;;;;;;;;;;5056960;28;20127;-61
2023/04/12 01:54:10;;;;;;;5.03;1.93;;;;;;;;;;5057199;28;20051;-60
2023/04/12 01:56:36;;;;;;;8.50;2.75;;;;;;;;;;5056630;28;20048;-60
2023/04/12 01:59:03;;;;;;;13.70;3.70;;;;;;;;;;5061791;28;20037;-60
2023/04/12 02:01:29;;;;;;;8.40;3.20;;;;;;;;;;5053743;28;20048;-60
2023/04/12 02:03:58;;;;;;;12.47;2.97;;;;;;;;;;5059018;28;20045;-61
2023/04/12 02:06:25;;;;;;;10.27;2.90;;;;;;;;;;5062677;28;20152;-61
2023/04/12 02:08:56;;;;;;;13.70;2.80;;;;;;;;;;5059981;28;20037;-61
2023/04/12 02:11:22;;;;;;;9.07;2.77;;;;;;;;;;5058533;28;20041;-60
2023/04/12 02:13:48;;;;;;;8.37;2.67;;;;;;;;;;5055215;28;20052;-61
2023/04/12 02:16:16;;;;;;;10.97;2.50;;;;;;;;;;5055660;28;20131;-60
2023/04/12 02:18:42;;;;;;;8.17;2.67;;;;;;;;;;5048929;28;20518;-61
2023/04/12 02:21:08;;;;;;;10.10;2.60;;;;;;;;;;5065059;28;20673;-61
2023/04/12 02:23:34;;;;;;;10.17;2.27;;;;;;;;;;5068771;28;20044;-61
2023/04/12 02:26:00;;;;;;;8.13;2.30;;;;;;;;;;5068199;28;20044;-60
2023/04/12 02:28:26;;;;;;;7.70;2.87;;;;;;;;;;5071667;28;20370;-61
2023/04/12 02:30:52;;;;;;;11.40;2.43;;;;;;;;;;5072303;28;20052;-60
2023/04/12 02:33:24;;;;;;;6.53;2.60;;;;;;;;;;5072681;28;20138;-61
2023/04/12 02:35:50;;;;;;;5.87;2.17;;;;;;;;;;5067862;28;20098;-61
2023/04/12 02:38:16;;;;;;;8.73;2.27;;;;;;;;;;5052274;28;20131;-61
2023/04/12 02:40:42;;;;;;;11.30;2.53;;;;;;;;;;5051817;28;20056;-61
2023/04/12 02:43:09;;;;;;;9.90;2.13;;;;;;;;;;5052585;28;20579;-61
2023/04/12 02:45:35;;;;;;;11.10;2.37;;;;;;;;;;5052659;28;20045;-61
2023/04/12 02:48:01;;;;;;;8.10;2.40;;;;;;;;;;5052153;28;20411;-61
2023/04/12 02:50:28;;;;;;;16.67;2.40;;;;;;;;;;5051556;28;20044;-61
2023/04/12 02:52:54;;;;;;;9.23;2.30;;;;;;;;;;5051918;28;20388;-61
2023/04/12 02:55:20;;;;;;;11.23;2.10;;;;;;;;;;5052330;28;20080;-61
2023/04/12 02:57:47;;;;;;;7.43;2.67;;;;;;;;;;5052082;28;20452;-61
2023/04/12 03:00:17;;;;;;;8.77;2.70;;;;;;;;;;5051807;28;20268;-61
2023/04/12 03:02:43;;;;;;;5.47;1.70;;;;;;;;;;5052243;28;20511;-61
2023/04/12 03:05:11;;;;;;;14.90;2.30;;;;;;;;;;5052136;28;20041;-61
2023/04/12 03:07:37;;;;;;;5.53;2.67;;;;;;;;;;5051489;28;20134;-60
2023/04/12 03:10:06;;;;;;;5.67;2.53;;;;;;;;;;5051749;28;20083;-61
2023/04/12 03:12:33;;;;;;;8.67;2.20;;;;;;;;;;5051842;28;20091;-61
2023/04/12 03:14:59;;;;;;;6.43;1.90;;;;;;;;;;5051860;28;20049;-61
2023/04/12 03:17:26;;;;;;;7.87;1.80;;;;;;;;;;5051681;28;20056;-61
2023/04/12 03:19:52;;;;;;;10.67;2.13;;;;;;;;;;5051522;28;20041;-60
2023/04/12 03:22:22;;;;;;;7.47;2.37;;;;;;;;;;5051603;28;20796;-61
2023/04/12 03:24:48;;;;;;;6.93;2.40;;;;;;;;;;5052063;28;20102;-60
2023/04/12 03:27:14;;;;;;;11.03;2.47;;;;;;;;;;5051151;28;20478;-61
2023/04/12 03:29:41;;;;;;;6.57;2.00;;;;;;;;;;5051843;28;20102;-61
2023/04/12 03:32:07;;;;;;;13.73;2.83;;;;;;;;;;5056391;28;20098;-60
2023/04/12 03:34:33;;;;;;;10.80;2.47;;;;;;;;;;5054562;28;20080;-61
2023/04/12 03:37:02;;;;;;;13.63;2.30;;;;;;;;;;5051829;28;20041;-61
2023/04/12 03:39:28;;;;;;;14.47;2.87;;;;;;;;;;5051313;28;20051;-60
2023/04/12 03:41:54;;;;;;;10.80;3.00;;;;;;;;;;5051008;28;20052;-61
2023/04/12 03:44:21;;;;;;;9.33;2.70;;;;;;;;;;5051234;28;20041;-61
2023/04/12 03:46:47;;;;;;;8.50;2.63;;;;;;;;;;5054621;28;20532;-61
2023/04/12 03:49:16;;;;;;;8.40;2.67;;;;;;;;;;5050692;28;20423;-61
2023/04/12 03:51:44;;;;;;;10.20;3.00;;;;;;;;;;5051154;28;20195;-61
2023/04/12 03:54:11;;;;;;;9.50;3.13;;;;;;;;;;5050687;28;20537;-61
2023/04/12 03:56:37;;;;;;;9.93;3.53;;;;;;;;;;5051058;28;20049;-61
2023/04/12 03:59:06;;;;;;;10.90;3.73;;;;;;;;;;5050749;28;20044;-60
2023/04/12 04:01:32;;;;;;;14.53;4.63;;;;;;;;;;5062571;28;20047;-61
2023/04/12 04:03:58;;;;;;;10.27;4.30;;;;;;;;;;5070120;28;20036;-61
2023/04/12 04:06:25;;;;;;;9.20;4.07;;;;;;;;;;5068672;28;20076;-60
2023/04/12 04:08:51;;;;;;;11.03;4.00;;;;;;;;;;5050490;28;20056;-60
2023/04/12 04:11:17;;;;;;;14.10;5.20;;;;;;;;;;5050415;28;20049;-60
2023/04/12 04:13:45;;;;;;;14.87;5.83;;;;;;;;;;5050513;28;20049;-61
2023/04/12 04:16:11;;;;;;;12.13;5.47;;;;;;;;;;5050810;28;20128;-60
2023/04/12 04:18:37;;;;;;;15.73;5.43;;;;;;;;;;5049724;28;20103;-60
2023/04/12 04:21:03;;;;;;;13.97;6.43;;;;;;;;;;5064626;28;20064;-60
2023/04/12 04:23:37;;;;;;;14.93;5.90;;;;;;;;;;5070393;28;20050;-60
2023/04/12 04:26:04;;;;;;;;;;;;;;;;;;5070641;28;20053;-60
2023/04/12 04:28:30;;;;;;;12.40;4.87;;;;;;;;;;5070392;28;19921;-60
2023/04/12 04:30:56;;;;;;;11.53;4.87;;;;;;;;;;5054862;28;20056;-61
2023/04/12 04:33:23;;;;;;;18.60;5.20;;;;;;;;;;5048847;28;20067;-61
2023/04/12 04:35:50;;;;;;;11.70;4.00;;;;;;;;;;5050198;28;20091;-61
2023/04/12 04:38:16;;;;;;;13.10;4.73;;;;;;;;;;5065105;28;20052;-61
2023/04/12 04:40:42;;;;;;;12.70;4.20;;;;;;;;;;5068882;28;20044;-61
2023/04/12 04:43:08;;;;;;;12.83;4.37;;;;;;;;;;5070472;28;20094;-61
2023/04/12 04:45:35;;;;;;;10.20;3.67;;;;;;;;;;5069622;28;20043;-61
2023/04/12 04:48:02;;;;;;;8.90;3.50;;;;;;;;;;5070157;28;20084;-62
2023/04/12 04:50:28;;;;;;;10.97;3.80;;;;;;;;;;5069031;28;20127;-63
2023/04/12 04:52:54;;;;;;;11.50;4.37;;;;;;;;;;5059272;28;20878;-63
2023/04/12 04:55:20;;;;;;;12.30;4.10;;;;;;;;;;5064996;28;20056;-64
2023/04/12 04:57:46;;;;;;;9.80;4.07;;;;;;;;;;5069798;28;20052;-63
2023/04/12 05:00:13;;;;;;;16.33;5.17;;;;;;;;;;5069331;28;20037;-64
2023/04/12 05:02:41;;;;;;;12.37;4.93;;;;;;;;;;5069936;28;20063;-63
2023/04/12 05:05:07;;;;;;;12.03;4.27;;;;;;;;;;5069386;28;20067;-63
2023/04/12 05:07:35;;;;;;;10.80;4.53;;;;;;;;;;5067311;28;20059;-63
2023/04/12 05:10:01;;;;;;;14.17;5.57;;;;;;;;;;5057489;28;20091;-63
2023/04/12 05:12:27;;;;;;;12.63;4.83;;;;;;;;;;5069289;28;20052;-63
2023/04/12 05:14:53;;;;;;;10.13;4.43;;;;;;;;;;5064079;28;20047;-64
2023/04/12 05:17:21;;;;;;;12.93;4.70;;;;;;;;;;5055838;28;20499;-64
2023/04/12 05:19:47;;;;;;;14.40;4.47;;;;;;;;;;5055842;28;20044;-62
2023/04/12 05:22:19;;;;;;;13.27;4.00;;;;;;;;;;5058860;28;20071;-62
2023/04/12 05:24:45;;;;;;;9.60;4.63;;;;;;;;;;5056945;28;20040;-65
2023/04/12 05:27:11;;;;;;;16.37;5.33;;;;;;;;;;5060182;28;20048;-64
2023/04/12 05:29:37;;;;;;;9.97;4.27;;;;;;;;;;5055709;28;20614;-64
2023/04/12 05:32:03;;;;;;;9.80;4.20;;;;;;;;;;5058104;28;20119;-64
2023/04/12 05:34:29;;;;;;;17.43;4.63;;;;;;;;;;5050756;28;20041;-65
2023/04/12 05:36:58;;;;;;;9.90;4.00;;;;;;;;;;5048475;28;20061;-64
2023/04/12 05:39:25;;;;;;;9.63;4.20;;;;;;;;;;5063087;28;20095;-64
2023/04/12 05:41:51;;;;;;;12.83;4.37;;;;;;;;;;5063917;28;20044;-64
2023/04/12 05:44:17;;;;;;;11.50;4.10;;;;;;;;;;5058164;28;20445;-65
2023/04/12 05:46:43;;;;;;;13.17;4.87;;;;;;;;;;5048988;28;20106;-65
2023/04/12 05:49:09;;;;;;;8.83;3.70;;;;;;;;;;5048086;28;20051;-65
2023/04/12 05:51:35;;;;;;;14.73;4.83;;;;;;;;;;5048583;28;20084;-65
2023/04/12 05:54:05;;;;;;;10.63;3.03;;;;;;;;;;5049432;28;20176;-67
2023/04/12 05:56:31;;;;;;;11.67;4.67;;;;;;;;;;5059115;28;20099;-65
2023/04/12 05:58:57;;;;;;;9.47;4.77;;;;;;;;;;5068160;28;20076;-65
2023/04/12 06:01:29;;;;;;;11.63;4.73;;;;;;;;;;5060868;28;20045;-65
2023/04/12 06:03:57;;;;;;;13.90;5.20;;;;;;;;;;5048740;28;20056;-65
2023/04/12 06:06:23;;;;;;;12.73;4.20;;;;;;;;;;5061961;28;20123;-65
2023/04/12 06:08:50;;;;;;;13.10;4.93;;;;;;;;;;5068190;28;20040;-62
2023/04/12 06:11:16;;;;;;;13.67;4.77;;;;;;;;;;5058073;28;20084;-63
2023/04/12 06:13:42;;;;;;;18.10;5.20;;;;;;;;;;5048864;28;20047;-64
2023/04/12 06:16:08;;;;;;;9.17;4.97;;;;;;;;;;5059742;28;20041;-64
2023/04/12 06:18:36;;;;;;;15.80;5.80;;;;;;;;;;5048182;28;20484;-64
2023/04/12 06:21:03;;;;;;;15.83;5.43;;;;;;;;;;5062751;28;20399;-64
2023/04/12 06:23:29;;;;;;;11.47;4.90;;;;;;;;;;5062294;28;20120;-64
2023/04/12 06:25:55;;;;;;;9.97;5.17;;;;;;;;;;5046373;28;20052;-64
2023/04/12 06:28:21;;;;;;;14.23;5.13;;;;;;;;;;5049999;28;20052;-64
2023/04/12 06:30:47;;;;;;;16.93;6.37;;;;;;;;;;5062668;28;20105;-66
2023/04/12 06:33:14;;;;;;;16.70;6.17;;;;;;;;;;5067330;28;20044;-65
2023/04/12 06:35:40;;;;;;;16.60;5.73;;;;;;;;;;5063484;28;20570;-64
2023/04/12 06:38:06;;;;;;;19.17;6.53;;;;;;;;;;5056485;28;20122;-64
2023/04/12 06:40:32;;;;;;;16.63;6.80;;;;;;;;;;5056774;28;20419;-65
2023/04/12 06:42:58;;;;;;;16.43;6.30;;;;;;;;;;5057203;28;20045;-64
2023/04/12 06:45:24;;;;;;;17.47;7.90;;;;;;;;;;5051873;28;20051;-64
2023/04/12 06:47:50;;;;;;;15.00;7.17;;;;;;;;;;5049322;28;20049;-64
2023/04/12 06:50:17;;;;;;;19.40;9.23;;;;;;;;;;5048585;28;20048;-64
2023/04/12 06:52:43;;;;;;;16.40;6.57;;;;;;;;;;5047491;28;20045;-64
2023/04/12 06:55:12;;;;;;;16.63;8.50;;;;;;;;;;5049631;28;20055;-64
2023/04/12 06:57:38;;;;;;;14.50;7.07;;;;;;;;;;5048527;28;20041;-63
2023/04/12 07:00:04;;;;;;;15.70;6.77;;;;;;;;;;5046871;28;20560;-64
2023/04/12 07:02:30;;;;;;;15.30;8.10;;;;;;;;;;5048378;28;20036;-64
2023/04/12 07:04:56;;;;;;;17.63;7.57;;;;;;;;;;5050580;28;20051;-64
2023/04/12 07:07:22;;;;;;;24.53;9.67;;;;;;;;;;5054880;28;20053;-65
2023/04/12 07:09:49;;;;;;;16.23;7.80;;;;;;;;;;5058920;28;20048;-64
2023/04/12 07:12:15;;;;;;;16.80;7.30;;;;;;;;;;5063273;28;20040;-65
2023/04/12 07:14:41;;;;;;;14.63;7.57;;;;;;;;;;5071215;28;20079;-64
2023/04/12 07:17:07;;;;;;;19.13;8.43;;;;;;;;;;5071727;28;20545;-65
2023/04/12 07:19:33;;;;;;;16.20;8.37;;;;;;;;;;5069753;28;20075;-63
2023/04/12 07:21:59;;;;;;;13.43;8.40;;;;;;;;;;5071480;28;20044;-64
2023/04/12 07:24:25;;;;;;;15.73;9.60;;;;;;;;;;5070127;28;20079;-64
2023/04/12 07:26:54;;;;;;;19.00;8.23;;;;;;;;;;5071324;28;20087;-64
2023/04/12 07:29:20;;;;;;;19.97;9.50;;;;;;;;;;5071462;28;20048;-64
2023/04/12 07:31:47;;;;;;;21.87;9.60;;;;;;;;;;5071340;28;20092;-64
2023/04/12 07:34:13;;;;;;;13.97;8.47;;;;;;;;;;5070187;28;20045;-64
2023/04/12 07:36:39;;;;;;;18.20;9.60;;;;;;;;;;5070868;28;20881;-64
2023/04/12 07:39:05;;;;;;;13.60;9.13;;;;;;;;;;5071576;28;20041;-65
2023/04/12 07:41:31;;;;;;;24.37;11.03;;;;;;;;;;5071290;28;20048;-64
2023/04/12 07:43:57;;;;;;;23.30;10.87;;;;;;;;;;5071436;28;20667;-64
2023/04/12 07:46:23;;;;;;;18.43;10.23;;;;;;;;;;5070244;28;20052;-64
2023/04/12 07:48:51;;;;;;;16.63;11.03;;;;;;;;;;5071305;28;20052;-64
2023/04/12 07:51:17;;;;;;;18.80;11.20;;;;;;;;;;5071192;28;20170;-64
2023/04/12 07:53:47;;;;;;;16.97;11.03;;;;;;;;;;5064921;28;20141;-64
2023/04/12 07:56:13;;;;;;;20.13;13.33;;;;;;;;;;5070520;28;20506;-64
2023/04/12 07:58:39;;;;;;;14.90;12.37;;;;;;;;;;5070432;28;20041;-64
2023/04/12 08:01:08;;;;;;;15.83;13.40;;;;;;;;;;5069911;28;20525;-64
2023/04/12 08:03:35;;;;;;;20.50;13.77;;;;;;;;;;5070909;28;20101;-64
2023/04/12 08:06:01;;;;;;;20.73;13.70;;;;;;;;;;5070078;28;20048;-64
2023/04/12 08:08:27;;;;;;;20.07;14.10;;;;;;;;;;5070898;28;20048;-64
2023/04/12 08:10:53;;;;;;;20.67;14.87;;;;;;;;;;5070923;28;20048;-64
2023/04/12 08:13:20;;;;;;;19.80;15.13;;;;;;;;;;5070992;28;20056;-64
2023/04/12 08:15:46;;;;;;;19.37;15.40;;;;;;;;;;5070956;28;20082;-64
2023/04/12 08:18:12;;;;;;;28.47;17.90;;;;;;;;;;5071048;28;20803;-65
2023/04/12 08:20:43;;;;;;;25.30;17.63;;;;;;;;;;5069323;28;20044;-64
2023/04/12 08:23:09;;;;;;;22.20;17.07;;;;;;;;;;5070748;28;20044;-64
2023/04/12 08:25:35;;;;;;;22.83;15.93;;;;;;;;;;5069435;28;20467;-64
2023/04/12 08:28:02;;;;;;;25.53;18.17;;;;;;;;;;5070324;28;20055;-64
2023/04/12 08:30:28;;;;;;;23.87;17.20;;;;;;;;;;5070170;28;20048;-64
2023/04/12 08:32:55;;;;;;;23.27;17.27;;;;;;;;;;5068981;28;20726;-64
2023/04/12 08:35:24;;;;;;;28.50;19.33;;;;;;;;;;5070553;28;20043;-65
2023/04/12 08:37:50;;;;;;;27.20;18.00;;;;;;;;;;5070383;28;20048;-65
2023/04/12 08:40:16;;;;;;;28.73;17.93;;;;;;;;;;5069542;28;20052;-65
2023/04/12 08:42:43;;;;;;;26.73;17.23;;;;;;;;;;5069918;28;20041;-65
2023/04/12 08:45:11;;;;;;;23.67;16.67;;;;;;;;;;5070240;28;20407;-64
2023/04/12 08:47:38;;;;;;;23.40;17.53;;;;;;;;;;5069842;28;20103;-63
2023/04/12 08:50:08;;;;;;;25.00;16.47;;;;;;;;;;5069837;28;20056;-63
2023/04/12 08:52:35;;;;;;;30.87;18.83;;;;;;;;;;5069105;28;20724;-66
2023/04/12 08:55:05;;;;;;;29.40;19.77;;;;;;;;;;5066777;28;20094;-65
2023/04/12 08:57:31;;;;;;;26.83;17.33;;;;;;;;;;5058338;28;20489;-65
2023/04/12 08:59:59;;;;;;;22.53;17.57;;;;;;;;;;5060197;28;20059;-64
2023/04/12 09:02:25;;;;;;;41.13;23.07;;;;;;;;;;5059540;28;20422;-65
2023/04/12 09:04:52;;;;;;;27.17;18.03;;;;;;;;;;5050243;28;20056;-65
2023/04/12 09:07:21;;;;;;;23.40;17.33;;;;;;;;;;5048632;28;20456;-65
2023/04/12 09:09:48;;;;;;;27.17;17.80;;;;;;;;;;5049849;28;20041;-65
2023/04/12 09:12:15;;;;;;;26.07;17.17;;;;;;;;;;5049804;28;20044;-65
2023/04/12 09:14:44;;;;;;;26.90;18.83;;;;;;;;;;5048281;28;20502;-63
2023/04/12 09:17:22;;;;;;;21.10;15.83;;;;;;;;;;5049658;28;20432;-63
2023/04/12 09:19:49;;;;;;;24.53;16.50;;;;;;;;;;5049484;28;20045;-62
2023/04/12 09:22:15;;;;;;;22.27;14.50;;;;;;;;;;5049622;28;20045;-63
2023/04/12 09:24:49;;;;;;;20.00;14.43;;;;;;;;;;5056521;28;20044;-63
2023/04/12 09:27:16;;;;;;;24.50;15.03;;;;;;;;;;5069050;28;20096;-63
2023/04/12 09:29:44;;;;;;;21.70;14.33;;;;;;;;;;5068774;28;20127;-63
2023/04/12 09:32:10;;;;;;;18.37;12.13;;;;;;;;;;5068096;28;20048;-63
2023/04/12 09:34:37;;;;;;;20.47;12.50;;;;;;;;;;5068082;28;20123;-63
2023/04/12 09:37:13;;;;;;;15.87;11.53;;;;;;;;;;5069489;28;20109;-62
2023/04/12 09:39:39;;;;;;;17.83;9.33;;;;;;;;;;5069118;28;20048;-63
2023/04/12 09:42:06;;;;;;;11.90;9.60;;;;;;;;;;5069171;28;20084;-63
2023/04/12 09:44:33;;;;;;;16.97;10.30;;;;;;;;;;5068753;28;20574;-63
2023/04/12 09:47:01;;;;;;;20.13;7.87;;;;;;;;;;5069443;28;20056;-62
2023/04/12 09:49:42;;;;;;;12.17;8.13;;;;;;;;;;5067337;28;20071;-63
2023/04/12 09:52:10;;;;;;;13.43;8.77;;;;;;;;;;5065834;28;20052;-63
2023/04/12 09:54:47;;;;;;;16.03;10.67;;;;;;;;;;5067457;28;20197;-63
2023/04/12 09:57:17;;;;;;;19.07;11.07;;;;;;;;;;5067501;28;20040;-62
2023/04/12 09:59:43;;;;;;;13.43;9.90;;;;;;;;;;5066908;28;20059;-62
2023/04/12 10:02:16;;;;;;;16.17;8.53;;;;;;;;;;5061574;28;20037;-62
2023/04/12 10:04:42;;;;;;;9.85;6.25;;;;;;;;;;5059287;28;20040;-63
2023/04/12 10:07:09;;;;;;;9.80;5.17;;;;;;;;;;5059006;28;20041;-63
2023/04/12 10:09:37;;;;;;;12.03;6.17;;;;;;;;;;5056576;28;20503;-63
2023/04/12 10:12:03;;;;;;;11.33;5.30;;;;;;;;;;5056161;28;20041;-63
2023/04/12 10:14:30;;;;;;;19.63;5.37;;;;;;;;;;5058882;28;20045;-63
2023/04/12 10:16:57;;;;;;;16.67;5.77;;;;;;;;;;5050987;28;20041;-63
2023/04/12 10:19:25;;;;;;;12.57;5.97;;;;;;;;;;5048403;28;20044;-63
2023/04/12 10:21:52;;;;;;;13.77;6.53;;;;;;;;;;5048188;28;20396;-63
2023/04/12 10:24:21;;;;;;;14.20;5.33;;;;;;;;;;5048448;28;20068;-63
2023/04/12 10:26:49;;;;;;;11.53;6.03;;;;;;;;;;5064097;28;20044;-63
2023/04/12 10:29:23;;;;;;;10.47;4.17;;;;;;;;;;5068242;28;20459;-63
2023/04/12 10:31:49;;;;;;;12.97;4.30;;;;;;;;;;5068619;28;20049;-63
2023/04/12 10:34:16;;;;;;;12.33;3.73;;;;;;;;;;5065443;28;20049;-62
2023/04/12 10:36:52;;;;;;;13.57;4.47;;;;;;;;;;5056713;28;20127;-64
2023/04/12 10:39:18;;;;;;;11.70;3.07;;;;;;;;;;5057480;28;20571;-63
2023/04/12 10:42:10;;;;;;;13.60;3.40;;;;;;;;;;5057989;28;20455;-63
2023/04/12 10:44:36;;;;;;;16.77;2.83;;;;;;;;;;5056362;28;20706;-63
2023/04/12 10:47:02;;;;;;;13.03;2.80;;;;;;;;;;5056299;28;20041;-63
2023/04/12 10:49:28;;;;;;;15.20;3.93;;;;;;;;;;5060934;28;20044;-63
2023/04/12 10:52:00;;;;;;;12.53;2.53;;;;;;;;;;5061538;28;20048;-63
2023/04/12 10:54:27;;;;;;;14.63;2.77;;;;;;;;;;5059995;28;20128;-62
2023/04/12 10:56:53;;;;;;;17.37;3.23;;;;;;;;;;5060935;28;20075;-62
2023/04/12 10:59:19;;;;;;;15.60;2.37;;;;;;;;;;5060439;28;20048;-62
2023/04/12 11:02:04;;;;;;;13.23;2.73;;;;;;;;;;5058382;28;20044;-61
2023/04/12 11:04:30;;;;;;;12.60;3.63;;;;;;;;;;5064588;28;20040;-62
2023/04/12 11:06:58;;;;;;;11.63;2.60;;;;;;;;;;5070223;28;20044;-60
2023/04/12 11:09:34;;;;;;;12.97;3.10;;;;;;;;;;5062296;28;20605;-61
2023/04/12 11:12:06;;;;;;;10.83;4.37;;;;;;;;;;5060204;28;20123;-61
2023/04/12 11:14:35;;;;;;;13.07;3.23;;;;;;;;;;5059721;28;20041;-62
2023/04/12 11:17:16;;;;;;;14.20;2.97;;;;;;;;;;5057868;28;20045;-62
2023/04/12 11:19:56;;;;;;;11.20;2.70;;;;;;;;;;5058436;28;20094;-61
2023/04/12 11:22:23;;;;;;;17.77;3.90;;;;;;;;;;5060402;28;20041;-61
2023/04/12 11:24:51;;;;;;;11.13;2.70;;;;;;;;;;5058937;28;20526;-61
2023/04/12 11:27:18;;;;;;;11.47;2.90;;;;;;;;;;5057666;28;20075;-61
2023/04/12 11:29:45;;;;;;;9.90;3.13;;;;;;;;;;5058140;28;21401;-62
2023/04/12 11:32:15;;;;;;;16.07;3.07;;;;;;;;;;5061209;28;20120;-61
2023/04/12 11:34:43;;;;;;;9.90;2.80;;;;;;;;;;5061477;28;20039;-61
2023/04/12 11:37:10;;;;;;;13.23;2.93;;;;;;;;;;5056419;28;20041;-61
2023/04/12 11:39:40;;;;;;;14.10;3.10;;;;;;;;;;5056872;28;20463;-61
2023/04/12 11:42:09;;;;;;;12.30;2.57;;;;;;;;;;5057603;28;20132;-61
2023/04/12 11:44:36;;;;;;;16.23;2.37;;;;;;;;;;5058778;28;20403;-60
2023/04/12 11:47:03;;;;;;;11.37;2.40;;;;;;;;;;5062471;28;20044;-60
2023/04/12 11:49:29;;;;;;;14.13;3.20;;;;;;;;;;5062528;28;20059;-60
2023/04/12 11:52:03;;;;;;;11.87;2.63;;;;;;;;;;5062428;28;20402;-60
2023/04/12 11:54:29;;;;;;;10.50;2.63;;;;;;;;;;5056301;28;20056;-60
2023/04/12 11:56:58;;;;;;;12.37;2.43;;;;;;;;;;5056478;28;20449;-60
2023/04/12 11:59:31;;;;;;;14.60;3.00;;;;;;;;;;5059468;28;20040;-60
2023/04/12 12:01:58;;;;;;;;;;;;;;;;;;5054579;28;20053;-60
2023/04/12 12:04:24;;;;;;;10.90;2.63;;;;;;;;;;5053558;28;19921;-60
2023/04/12 12:06:50;;;;;;;12.70;2.97;;;;;;;;;;5053112;28;20993;-60
2023/04/12 12:09:16;;;;;;;15.23;3.33;;;;;;;;;;5059574;28;20388;-59
2023/04/12 12:11:42;;;;;;;15.07;2.60;;;;;;;;;;5058750;28;20048;-59
2023/04/12 12:14:08;;;;;;;13.50;2.80;;;;;;;;;;5059836;28;20044;-59
2023/04/12 12:16:34;;;;;;;12.43;2.53;;;;;;;;;;5061247;28;20048;-59
2023/04/12 12:19:03;;;;;;;10.90;2.90;;;;;;;;;;5057818;28;20120;-59
2023/04/12 12:21:30;;;;;;;12.00;2.63;;;;;;;;;;5059108;28;20049;-59
2023/04/12 12:23:57;;;;;;;13.23;3.43;;;;;;;;;;5058237;28;20075;-59
2023/04/12 12:26:24;;;;;;;16.13;3.00;;;;;;;;;;5059494;28;20046;-58
2023/04/12 12:28:56;;;;;;;10.40;2.60;;;;;;;;;;5059397;28;20060;-58
2023/04/12 12:31:23;;;;;;;16.35;3.38;;;;;;;;;;5059856;28;20064;-59
2023/04/12 12:33:53;;;;;;;15.00;2.63;;;;;;;;;;5059349;28;20045;-58
2023/04/12 12:36:19;;;;;;;12.87;3.23;;;;;;;;;;5058723;28;20075;-58
2023/04/12 12:38:47;;;;;;;13.80;3.50;;;;;;;;;;5058496;28;20575;-58
2023/04/12 12:41:23;;;;;;;13.13;2.80;;;;;;;;;;5058327;28;20044;-58
2023/04/12 12:43:51;;;;;;;13.57;2.97;;;;;;;;;;5059546;28;20040;-58
2023/04/12 12:46:18;;;;;;;14.90;3.00;;;;;;;;;;5059166;28;20510;-58
2023/04/12 12:48:45;;;;;;;17.03;4.07;;;;;;;;;;5054877;28;20048;-58
2023/04/12 12:51:11;;;;;;;14.00;3.10;;;;;;;;;;5051648;28;20084;-58
2023/04/12 12:53:39;;;;;;;16.43;2.83;;;;;;;;;;5058047;28;20056;-58
2023/04/12 12:56:06;;;;;;;13.57;3.13;;;;;;;;;;5061227;28;20041;-58
2023/04/12 12:58:32;;;;;;;10.00;2.30;;;;;;;;;;5056770;28;20040;-58
2023/04/12 13:00:58;;;;;;;13.27;3.37;;;;;;;;;;5056878;28;20580;-58
2023/04/12 13:03:24;;;;;;;12.37;3.53;;;;;;;;;;5059278;28;20406;-58
2023/04/12 13:05:51;;;;;;;16.80;2.90;;;;;;;;;;5058657;28;20045;-58
2023/04/12 13:08:17;;;;;;;15.07;4.33;;;;;;;;;;5058050;28;20048;-58
2023/04/12 13:10:44;;;;;;;13.97;2.80;;;;;;;;;;5059773;28;20037;-58
2023/04/12 13:13:10;;;;;;;12.77;2.80;;;;;;;;;;5057925;28;20040;-58
2023/04/12 13:15:36;;;;;;;14.87;2.50;;;;;;;;;;5060317;28;20051;-58
2023/04/12 13:18:02;;;;;;;9.63;2.80;;;;;;;;;;5056722;28;20494;-58
2023/04/12 13:20:28;;;;;;;13.10;2.53;;;;;;;;;;5059340;28;20048;-58
2023/04/12 13:22:54;;;;;;;13.20;2.93;;;;;;;;;;5060540;28;20040;-58
2023/04/12 13:25:20;;;;;;;12.13;2.67;;;;;;;;;;5069578;28;20048;-58
2023/04/12 13:27:51;;;;;;;11.33;2.70;;;;;;;;;;5062965;28;20506;-58
2023/04/12 13:30:17;;;;;;;13.07;2.60;;;;;;;;;;5050045;28;20052;-59
2023/04/12 13:32:44;;;;;;;10.03;2.47;;;;;;;;;;5048851;28;20063;-58
2023/04/12 13:35:10;;;;;;;6.27;2.03;;;;;;;;;;5048858;28;20458;-58
2023/04/12 13:37:36;;;;;;;6.10;1.10;;;;;;;;;;5050348;28;20072;-59
2023/04/12 13:40:03;;;;;;;6.20;1.20;;;;;;;;;;5063084;28;20041;-58
2023/04/12 13:42:29;;;;;;;10.63;2.20;;;;;;;;;;5068917;28;20072;-58
2023/04/12 13:44:55;;;;;;;7.13;1.40;;;;;;;;;;5068596;28;20510;-58
2023/04/12 13:47:22;;;;;;;5.70;1.47;;;;;;;;;;5068547;28;20044;-60
2023/04/12 13:49:48;;;;;;;3.57;1.10;;;;;;;;;;5068295;28;20048;-60
2023/04/12 13:52:14;;;;;;;6.53;2.00;;;;;;;;;;5068324;28;20045;-60
2023/04/12 13:54:42;;;;;;;6.90;1.57;;;;;;;;;;5068684;28;20040;-60
2023/04/12 13:57:08;;;;;;;14.70;2.83;;;;;;;;;;5068256;28;20044;-62
2023/04/12 13:59:34;;;;;;;15.87;3.10;;;;;;;;;;5060783;28;20055;-64
2023/04/12 14:02:00;;;;;;;13.57;2.47;;;;;;;;;;5056729;28;20086;-64
2023/04/12 14:04:27;;;;;;;12.90;2.20;;;;;;;;;;5062581;28;20048;-64
2023/04/12 14:06:53;;;;;;;10.13;2.13;;;;;;;;;;5063374;28;20056;-64
2023/04/12 14:09:24;;;;;;;11.67;2.37;;;;;;;;;;5055224;28;20048;-64
2023/04/12 14:11:50;;;;;;;7.17;1.77;;;;;;;;;;5057648;28;20048;-64
2023/04/12 14:14:16;;;;;;;12.67;2.50;;;;;;;;;;5053974;28;20572;-64
2023/04/12 14:16:43;;;;;;;9.03;2.37;;;;;;;;;;5054208;28;20387;-63
2023/04/12 14:19:09;;;;;;;9.13;2.97;;;;;;;;;;5053768;28;20053;-63
2023/04/12 14:21:36;;;;;;;11.80;2.20;;;;;;;;;;5055753;28;20033;-63
2023/04/12 14:24:02;;;;;;;8.07;2.13;;;;;;;;;;5059334;28;20517;-63
2023/04/12 14:26:28;;;;;;;9.03;1.87;;;;;;;;;;5059128;28;20095;-63
2023/04/12 14:28:54;;;;;;;9.33;2.13;;;;;;;;;;5060841;28;20466;-63
2023/04/12 14:31:21;;;;;;;11.13;2.10;;;;;;;;;;5060207;28;20048;-63
2023/04/12 14:33:47;;;;;;;8.90;1.33;;;;;;;;;;5061330;28;20506;-63